Time;durP1;ratioP1;P1;durP2;ratioP2;P2;SDS_P1;SDS_P2;PMS_P1;PMS_P2;Temp;Humidity;BMP_temperature;BMP_pressure;BME280_temperature;BME280_humidity;BME280_pressure;Samples;Min_cycle;Max_cycle;Signal;HPM_P1;HPM_P2
2022/08/28 00:00:44;;;;;;;14.27;5.65;;;13.70;99.90;;;;;;4986587;28;20609;-87
2022/08/28 00:03:12;;;;;;;10.98;5.15;;;13.70;99.90;;;;;;4989873;28;20050;-87
2022/08/28 00:05:38;;;;;;;13.43;5.78;;;13.80;99.90;;;;;;5004005;28;20494;-87
2022/08/28 00:08:04;;;;;;;11.07;4.88;;;13.60;99.90;;;;;;4989130;28;20482;-87
2022/08/28 00:10:30;;;;;;;12.75;6.55;;;13.60;99.90;;;;;;5006589;28;20499;-87
2022/08/28 00:12:56;;;;;;;12.15;5.40;;;13.60;99.90;;;;;;4985621;28;20038;-86
2022/08/28 00:15:32;;;;;;;10.52;5.05;;;13.60;99.90;;;;;;5001793;28;20057;-86
2022/08/28 00:17:59;;;;;;;11.93;5.75;;;13.60;99.90;;;;;;5002538;28;20092;-87
2022/08/28 00:20:25;;;;;;;11.43;5.28;;;13.50;99.90;;;;;;5008039;28;20060;-86
2022/08/28 00:22:53;;;;;;;11.50;5.20;;;13.50;99.90;;;;;;5004224;28;20394;-86
2022/08/28 00:25:22;;;;;;;12.50;5.53;;;13.50;99.90;;;;;;5006200;28;20041;-87
2022/08/28 00:27:52;;;;;;;11.05;5.40;;;13.50;99.90;;;;;;5005643;28;20049;-87
2022/08/28 00:30:36;;;;;;;12.63;5.10;;;13.50;99.90;;;;;;5000179;28;20042;-87
2022/08/28 00:33:09;;;;;;;11.75;5.30;;;13.40;99.90;;;;;;4998774;28;20073;-87
2022/08/28 00:35:35;;;;;;;11.57;5.22;;;13.40;99.90;;;;;;4989092;28;20056;-87
2022/08/28 00:38:01;;;;;;;13.95;5.50;;;13.40;99.90;;;;;;5004918;28;20044;-87
2022/08/28 00:40:29;;;;;;;13.20;5.45;;;13.40;99.90;;;;;;4989019;28;20057;-87
2022/08/28 00:42:54;;;;;;;14.05;5.47;;;13.50;99.90;;;;;;4998768;28;20053;-87
2022/08/28 00:45:22;;;;;;;12.02;5.25;;;13.40;99.90;;;;;;5004636;28;20457;-87
2022/08/28 00:47:47;;;;;;;13.68;5.78;;;13.40;99.90;;;;;;5001205;28;20037;-87
2022/08/28 00:50:17;;;;;;;12.75;5.32;;;13.30;99.90;;;;;;4988881;28;20160;-87
2022/08/28 00:52:50;;;;;;;14.45;6.88;;;13.30;99.90;;;;;;5003492;28;20498;-86
2022/08/28 00:55:22;;;;;;;10.55;5.03;;;13.30;99.90;;;;;;5005359;28;20046;-87
2022/08/28 00:57:52;;;;;;;10.07;5.18;;;13.30;99.90;;;;;;5003190;28;20132;-87
2022/08/28 01:00:26;;;;;;;11.27;5.78;;;13.30;99.90;;;;;;4989082;28;20050;-87
2022/08/28 01:02:52;;;;;;;12.13;6.03;;;13.30;99.90;;;;;;4998443;28;20050;-87
2022/08/28 01:05:18;;;;;;;11.55;5.80;;;13.30;99.90;;;;;;5003970;28;20143;-87
2022/08/28 01:07:45;;;;;;;11.13;5.80;;;13.30;99.90;;;;;;4988629;28;20435;-86
2022/08/28 01:10:21;;;;;;;13.27;5.78;;;13.30;99.90;;;;;;5004359;28;20042;-86
2022/08/28 01:12:48;;;;;;;12.07;5.55;;;13.20;99.90;;;;;;4984865;28;20081;-87
2022/08/28 01:15:18;;;;;;;11.85;5.50;;;13.20;99.90;;;;;;4988404;28;20042;-86
2022/08/28 01:17:50;;;;;;;13.27;5.57;;;13.20;99.90;;;;;;5004458;28;20437;-87
2022/08/28 01:20:20;;;;;;;11.95;6.00;;;13.20;99.90;;;;;;4984612;28;20050;-87
2022/08/28 01:23:19;;;;;;;13.32;5.63;;;13.20;99.90;;;;;;5002163;28;20037;-86
2022/08/28 01:25:44;;;;;;;12.02;5.28;;;13.10;99.90;;;;;;5003930;28;20060;-87
2022/08/28 01:28:13;;;;;;;10.55;5.10;;;13.10;99.90;;;;;;4997753;28;20041;-86
2022/08/28 01:30:44;;;;;;;12.38;6.10;;;13.10;99.90;;;;;;5006876;28;20553;-87
2022/08/28 01:33:10;;;;;;;10.52;4.82;;;13.10;99.90;;;;;;4988629;28;20100;-86
2022/08/28 01:35:39;;;;;;;11.98;5.95;;;13.10;99.90;;;;;;5006035;28;20050;-87
2022/08/28 01:38:05;;;;;;;11.38;5.25;;;13.10;99.90;;;;;;4982631;28;20141;-85
2022/08/28 01:40:35;;;;;;;11.02;5.32;;;13.10;99.90;;;;;;5005129;28;20124;-87
2022/08/28 01:43:14;;;;;;;12.32;5.57;;;13.10;99.90;;;;;;5003676;28;20042;-87
2022/08/28 01:45:43;;;;;;;14.40;5.65;;;13.10;99.90;;;;;;5005513;28;20061;-87
2022/08/28 01:48:09;;;;;;;14.23;5.35;;;13.00;99.90;;;;;;5002883;28;20049;-87
2022/08/28 01:50:35;;;;;;;12.10;5.32;;;13.10;99.90;;;;;;4987331;28;20078;-86
2022/08/28 01:53:03;;;;;;;12.85;5.30;;;13.00;99.90;;;;;;4998467;28;20080;-88
2022/08/28 01:55:31;;;;;;;11.23;5.22;;;13.00;99.90;;;;;;4984367;28;20398;-87
2022/08/28 01:57:57;;;;;;;12.60;5.63;;;13.00;99.90;;;;;;5000525;28;20462;-86
2022/08/28 02:00:26;;;;;;;11.18;5.30;;;13.00;99.90;;;;;;5006440;28;20084;-87
2022/08/28 02:02:56;;;;;;;12.02;5.60;;;13.00;99.90;;;;;;4983547;28;20054;-86
2022/08/28 02:05:24;;;;;;;12.18;5.68;;;12.90;99.90;;;;;;5006326;28;20049;-87
2022/08/28 02:07:51;;;;;;;14.02;5.80;;;13.00;99.90;;;;;;5001293;28;20054;-87
2022/08/28 02:10:17;;;;;;;13.05;5.82;;;12.90;99.90;;;;;;5006494;28;20042;-87
2022/08/28 02:12:43;;;;;;;12.07;5.53;;;12.90;99.90;;;;;;4988357;28;20057;-86
2022/08/28 02:15:09;;;;;;;11.60;5.80;;;12.90;99.90;;;;;;5005624;28;20869;-87
2022/08/28 02:17:35;;;;;;;12.50;5.13;;;12.90;99.90;;;;;;4975767;28;20039;-87
2022/08/28 02:20:01;;;;;;;11.93;5.30;;;12.90;99.90;;;;;;5003740;28;20048;-87
2022/08/28 02:22:27;;;;;;;10.82;5.40;;;12.80;99.90;;;;;;5004805;28;20416;-87
2022/08/28 02:24:55;;;;;;;12.13;5.57;;;12.80;99.90;;;;;;5000557;28;20050;-86
2022/08/28 02:27:21;;;;;;;12.18;5.57;;;12.80;99.90;;;;;;5001996;28;20083;-86
2022/08/28 02:29:47;;;;;;;13.07;6.65;;;12.80;99.90;;;;;;5004079;28;20495;-86
2022/08/28 02:32:12;;;;;;;12.75;5.50;;;12.80;99.90;;;;;;5005422;28;20089;-86
2022/08/28 02:34:39;;;;;;;12.20;5.63;;;12.80;99.90;;;;;;5004558;28;20089;-86
2022/08/28 02:37:07;;;;;;;10.00;5.38;;;12.80;99.90;;;;;;5005546;28;20152;-86
2022/08/28 02:39:33;;;;;;;11.13;5.75;;;12.80;99.90;;;;;;4999816;28;20376;-87
2022/08/28 02:41:58;;;;;;;12.80;6.15;;;12.70;99.90;;;;;;5008686;28;20045;-86
2022/08/28 02:44:24;;;;;;;12.77;6.07;;;12.70;99.90;;;;;;5008089;28;20057;-87
2022/08/28 02:46:50;;;;;;;11.80;5.80;;;12.70;99.90;;;;;;5007057;28;20076;-87
2022/08/28 02:49:16;;;;;;;9.95;5.45;;;12.70;99.90;;;;;;5004307;28;20164;-86
2022/08/28 02:51:41;;;;;;;12.55;5.72;;;12.70;99.90;;;;;;4989539;28;20465;-86
2022/08/28 02:54:07;;;;;;;11.57;5.65;;;12.70;99.90;;;;;;5007065;28;20049;-87
2022/08/28 02:56:33;;;;;;;12.02;6.15;;;12.70;99.90;;;;;;5007449;28;20813;-84
2022/08/28 02:58:58;;;;;;;11.63;5.03;;;12.70;99.90;;;;;;5007070;28;20046;-86
2022/08/28 03:01:24;;;;;;;11.63;6.30;;;12.70;99.90;;;;;;5007094;28;20068;-86
2022/08/28 03:03:50;;;;;;;11.43;5.90;;;12.60;99.90;;;;;;5006684;28;20080;-86
2022/08/28 03:06:15;;;;;;;12.18;5.65;;;12.70;99.90;;;;;;5003425;28;20038;-86
2022/08/28 03:08:42;;;;;;;16.05;6.00;;;12.60;99.90;;;;;;5007846;28;20453;-86
2022/08/28 03:11:08;;;;;;;10.80;5.55;;;12.60;99.90;;;;;;4987646;28;20047;-86
2022/08/28 03:13:34;;;;;;;13.65;6.55;;;12.60;99.90;;;;;;4990659;28;20093;-86
2022/08/28 03:16:00;;;;;;;11.55;5.97;;;12.60;99.90;;;;;;5007465;28;20081;-86
2022/08/28 03:18:29;;;;;;;12.30;5.82;;;12.60;99.90;;;;;;4987083;28;20088;-87
2022/08/28 03:20:55;;;;;;;12.73;5.80;;;12.70;99.90;;;;;;5003056;28;20137;-87
2022/08/28 03:23:26;;;;;;;13.32;6.03;;;12.60;99.90;;;;;;5006646;28;20121;-86
2022/08/28 03:25:55;;;;;;;11.85;5.97;;;12.50;99.90;;;;;;5007949;28;20046;-87
2022/08/28 03:28:21;;;;;;;11.25;5.60;;;12.50;99.90;;;;;;4988720;28;20044;-87
2022/08/28 03:30:48;;;;;;;12.73;5.82;;;12.50;99.90;;;;;;4989846;28;20045;-86
2022/08/28 03:33:14;;;;;;;12.10;5.60;;;12.50;99.90;;;;;;5003691;28;20046;-86
2022/08/28 03:35:40;;;;;;;12.23;6.15;;;12.50;99.90;;;;;;5003466;28;20058;-86
2022/08/28 03:38:05;;;;;;;14.32;6.38;;;12.50;99.90;;;;;;5004900;28;20042;-86
2022/08/28 03:40:31;;;;;;;11.10;5.97;;;12.50;99.90;;;;;;5007614;28;20085;-86
2022/08/28 03:42:59;;;;;;;13.63;5.43;;;12.40;99.90;;;;;;4989197;28;20034;-86
2022/08/28 03:45:24;;;;;;;10.45;5.43;;;12.40;99.90;;;;;;5008828;28;20165;-86
2022/08/28 03:47:50;;;;;;;10.65;5.80;;;12.40;99.90;;;;;;5004788;28;20450;-86
2022/08/28 03:50:16;;;;;;;10.98;6.10;;;12.40;99.90;;;;;;4987917;28;20034;-87
2022/08/28 03:52:42;;;;;;;11.07;5.88;;;12.40;99.90;;;;;;5005905;28;20399;-87
2022/08/28 03:55:11;;;;;;;11.90;6.00;;;12.40;99.90;;;;;;5002223;28;20057;-87
2022/08/28 03:57:38;;;;;;;12.18;5.80;;;12.40;99.90;;;;;;5007036;28;20875;-86
2022/08/28 04:00:08;;;;;;;11.65;5.60;;;12.40;99.90;;;;;;5005525;28;20061;-87
2022/08/28 04:02:33;;;;;;;12.40;6.20;;;12.40;99.90;;;;;;4989815;28;20052;-87
2022/08/28 04:04:59;;;;;;;12.90;6.03;;;12.40;99.90;;;;;;5004116;28;20486;-87
2022/08/28 04:07:24;;;;;;;11.15;5.65;;;12.30;99.90;;;;;;4981785;28;20046;-87
2022/08/28 04:09:50;;;;;;;11.32;5.90;;;12.30;99.90;;;;;;5005574;28;20046;-86
2022/08/28 04:12:16;;;;;;;12.95;6.13;;;12.30;99.90;;;;;;5006337;28;20505;-86
2022/08/28 04:14:41;;;;;;;11.85;6.03;;;12.30;99.90;;;;;;5007130;28;20052;-86
2022/08/28 04:17:07;;;;;;;11.73;5.72;;;12.30;99.90;;;;;;5003931;28;20034;-86
2022/08/28 04:19:33;;;;;;;10.88;5.65;;;12.30;99.90;;;;;;5004929;28;20073;-86
2022/08/28 04:21:59;;;;;;;12.55;5.93;;;12.30;99.90;;;;;;4988679;28;20042;-86
2022/08/28 04:24:24;;;;;;;11.32;5.45;;;12.30;99.90;;;;;;5005747;28;20445;-86
2022/08/28 04:26:50;;;;;;;10.10;5.80;;;12.30;99.90;;;;;;5000096;28;20034;-86
2022/08/28 04:29:16;;;;;;;11.88;5.68;;;12.30;99.90;;;;;;5002577;28;20048;-87
2022/08/28 04:31:42;;;;;;;12.27;5.40;;;12.30;99.90;;;;;;4990128;28;20461;-86
2022/08/28 04:34:09;;;;;;;11.48;5.25;;;12.30;99.90;;;;;;5006700;28;20045;-86
2022/08/28 04:36:36;;;;;;;13.25;5.57;;;12.30;99.90;;;;;;5005701;28;20120;-86
2022/08/28 04:39:04;;;;;;;13.10;6.05;;;12.30;99.90;;;;;;4998634;28;20042;-86
2022/08/28 04:41:31;;;;;;;11.65;5.70;;;12.30;99.90;;;;;;5003963;28;20438;-85
2022/08/28 04:43:57;;;;;;;11.40;5.25;;;12.30;99.90;;;;;;5004447;28;20386;-86
2022/08/28 04:46:23;;;;;;;11.85;5.50;;;12.40;99.90;;;;;;5000111;28;20070;-86
2022/08/28 04:48:49;;;;;;;17.10;5.68;;;12.40;99.90;;;;;;4997967;28;20053;-86
2022/08/28 04:51:14;;;;;;;12.07;5.43;;;12.40;99.90;;;;;;5007278;28;20038;-86
2022/08/28 04:53:41;;;;;;;12.90;5.72;;;12.40;99.90;;;;;;5005560;28;20387;-86
2022/08/28 04:56:09;;;;;;;12.35;5.30;;;12.40;99.90;;;;;;5003966;28;20042;-85
2022/08/28 04:58:36;;;;;;;12.27;5.50;;;12.50;99.90;;;;;;4981050;28;20101;-86
2022/08/28 05:01:07;;;;;;;11.60;5.93;;;12.50;99.90;;;;;;5004156;28;20062;-87
2022/08/28 05:03:32;;;;;;;11.65;5.05;;;12.50;99.90;;;;;;5000565;28;20038;-87
2022/08/28 05:05:58;;;;;;;9.73;5.35;;;12.50;99.90;;;;;;5005551;28;20509;-84
2022/08/28 05:08:26;;;;;;;11.98;5.63;;;12.50;99.90;;;;;;5004326;28;20068;-86
2022/08/28 05:10:53;;;;;;;10.98;5.18;;;12.50;99.90;;;;;;5004364;28;20050;-86
2022/08/28 05:13:20;;;;;;;13.77;5.13;;;12.60;99.90;;;;;;4987941;28;20141;-85
2022/08/28 05:15:48;;;;;;;10.35;4.95;;;12.60;99.90;;;;;;5000004;28;20050;-85
2022/08/28 05:18:15;;;;;;;10.90;5.07;;;12.60;99.90;;;;;;5001800;28;20171;-85
2022/08/28 05:20:44;;;;;;;13.68;5.00;;;12.60;99.90;;;;;;5005214;28;20048;-86
2022/08/28 05:23:10;;;;;;;11.38;5.70;;;12.70;99.90;;;;;;5005782;28;20093;-86
2022/08/28 05:25:39;;;;;;;16.27;5.82;;;12.70;99.90;;;;;;4988496;28;20049;-86
2022/08/28 05:28:05;;;;;;;13.23;5.25;;;12.70;99.90;;;;;;5000598;28;20060;-86
2022/08/28 05:30:32;;;;;;;11.20;5.07;;;12.70;99.90;;;;;;4998790;28;20042;-85
2022/08/28 05:32:58;;;;;;;10.35;4.82;;;12.80;99.90;;;;;;5004270;28;20056;-87
2022/08/28 05:35:25;;;;;;;12.43;4.80;;;12.80;99.90;;;;;;5006553;28;20042;-86
2022/08/28 05:37:53;;;;;;;9.68;4.50;;;12.90;99.90;;;;;;5001354;28;20046;-86
2022/08/28 05:40:21;;;;;;;11.70;5.05;;;13.00;99.90;;;;;;5006523;28;20115;-85
2022/08/28 05:42:48;;;;;;;9.77;4.25;;;13.10;99.90;;;;;;5003862;28;20406;-85
2022/08/28 05:45:14;;;;;;;10.95;5.00;;;13.20;99.90;;;;;;4994529;28;20074;-84
2022/08/28 05:47:39;;;;;;;9.98;4.30;;;13.30;99.90;;;;;;4999537;28;20394;-86
2022/08/28 05:50:07;;;;;;;11.68;4.90;;;13.30;99.90;;;;;;5003150;28;20041;-87
2022/08/28 05:52:34;;;;;;;10.15;4.28;;;13.40;99.90;;;;;;4996417;28;20065;-85
2022/08/28 05:54:59;;;;;;;11.75;4.22;;;13.50;99.90;;;;;;4997890;28;20042;-87
2022/08/28 05:57:25;;;;;;;9.68;4.25;;;13.60;99.90;;;;;;4998703;28;20072;-86
2022/08/28 05:59:52;;;;;;;8.95;3.83;;;13.60;99.90;;;;;;5005177;28;20108;-87
2022/08/28 06:02:18;;;;;;;11.07;4.45;;;13.70;99.90;;;;;;4986492;28;20034;-86
2022/08/28 06:04:43;;;;;;;10.07;4.07;;;13.80;99.90;;;;;;5003837;28;20565;-87
2022/08/28 06:07:11;;;;;;;9.63;3.92;;;13.80;99.90;;;;;;4982165;28;20550;-87
2022/08/28 06:09:37;;;;;;;10.18;4.13;;;13.90;99.90;;;;;;4998679;28;20639;-88
2022/08/28 06:12:04;;;;;;;11.25;3.92;;;14.00;99.90;;;;;;4999358;28;20130;-87
2022/08/28 06:14:30;;;;;;;12.27;4.13;;;14.00;99.90;;;;;;5006547;28;20042;-86
2022/08/28 06:16:57;;;;;;;9.38;3.83;;;14.20;99.90;;;;;;5005638;28;20053;-87
2022/08/28 06:19:25;;;;;;;10.18;3.95;;;14.20;99.90;;;;;;4991312;28;20042;-87
2022/08/28 06:21:55;;;;;;;9.93;3.90;;;14.30;99.90;;;;;;5007761;28;20041;-87
2022/08/28 06:24:20;;;;;;;9.48;4.03;;;14.40;99.90;;;;;;5005716;28;20129;-88
2022/08/28 06:26:46;;;;;;;8.88;3.40;;;14.50;99.90;;;;;;5007592;28;20132;-87
2022/08/28 06:29:17;;;;;;;10.27;3.75;;;14.50;99.90;;;;;;5004731;28;20151;-87
2022/08/28 06:31:43;;;;;;;8.52;3.75;;;14.60;99.90;;;;;;5010030;28;20042;-87
2022/08/28 06:34:09;;;;;;;9.00;3.90;;;14.70;99.90;;;;;;5005726;28;20117;-87
2022/08/28 06:36:40;;;;;;;12.05;3.72;;;14.80;99.90;;;;;;5004014;28;20129;-87
2022/08/28 06:39:08;;;;;;;9.77;3.78;;;14.90;99.90;;;;;;5001097;28;20045;-86
2022/08/28 06:41:39;;;;;;;8.52;3.30;;;14.90;99.90;;;;;;5008445;28;20041;-87
2022/08/28 06:44:05;;;;;;;9.55;3.40;;;15.00;99.90;;;;;;5002461;28;20046;-87
2022/08/28 06:46:33;;;;;;;8.43;3.75;;;15.10;99.90;;;;;;5006076;28;20144;-87
2022/08/28 06:49:01;;;;;;;9.45;3.45;;;15.30;99.90;;;;;;5003799;28;20109;-87
2022/08/28 06:51:27;;;;;;;9.30;3.13;;;15.40;99.90;;;;;;5000672;28;20153;-86
2022/08/28 06:53:52;;;;;;;10.23;3.15;;;15.60;99.90;;;;;;5004251;28;20041;-87
2022/08/28 06:56:19;;;;;;;9.75;3.08;;;15.70;99.90;;;;;;5008634;28;20092;-86
2022/08/28 06:58:47;;;;;;;9.23;3.15;;;15.80;99.90;;;;;;4998869;28;20104;-87
2022/08/28 07:01:27;;;;;;;8.68;2.80;;;15.90;99.90;;;;;;5007894;28;20053;-87
2022/08/28 07:03:55;;;;;;;8.48;2.70;;;15.90;99.90;;;;;;5007336;28;20077;-87
2022/08/28 07:06:23;;;;;;;9.88;2.63;;;16.00;99.90;;;;;;5004195;28;20425;-87
2022/08/28 07:08:49;;;;;;;9.07;3.03;;;16.00;99.90;;;;;;4996040;28;20092;-87
2022/08/28 07:11:28;;;;;;;8.07;2.47;;;16.00;99.90;;;;;;5004769;28;20077;-90
2022/08/28 07:13:55;;;;;;;10.50;3.05;;;16.10;99.90;;;;;;4997834;28;20129;-87
2022/08/28 07:16:24;;;;;;;9.90;2.88;;;16.20;99.90;;;;;;4999028;28;20069;-88
2022/08/28 07:18:50;;;;;;;9.15;2.70;;;16.30;99.90;;;;;;4999402;28;20050;-92
2022/08/28 07:21:15;;;;;;;8.30;2.58;;;16.40;99.90;;;;;;4997102;28;20403;-90
2022/08/28 07:23:43;;;;;;;7.15;2.30;;;16.40;99.90;;;;;;5002585;28;20469;-89
2022/08/28 07:26:12;;;;;;;8.50;2.70;;;16.60;99.90;;;;;;5004808;28;20065;-92
2022/08/28 07:28:38;;;;;;;7.18;2.20;;;16.70;99.90;;;;;;5007764;28;20462;-90
2022/08/28 07:31:09;;;;;;;8.38;2.50;;;16.70;99.90;;;;;;5004300;28;20082;-94
2022/08/28 07:33:38;;;;;;;8.07;2.10;;;16.90;99.90;;;;;;5004683;28;20074;-95
2022/08/28 07:36:06;;;;;;;6.82;2.15;;;17.00;99.90;;;;;;4998559;28;20046;-93
2022/08/28 07:38:35;;;;;;;9.60;2.33;;;17.00;99.90;;;;;;4991396;28;20038;-91
2022/08/28 07:41:01;;;;;;;9.60;2.33;;;17.10;99.90;;;;;;5009914;28;20041;-94
2022/08/28 07:46:11;;;;;;;9.15;2.25;;;17.20;99.90;;;;;;5026236;28;20050;-94
2022/08/28 07:48:39;;;;;;;8.32;2.20;;;17.30;99.90;;;;;;5007829;28;20045;-93
2022/08/28 07:51:06;;;;;;;6.85;2.30;;;17.40;99.90;;;;;;5002030;28;20248;-93
2022/08/28 07:53:32;;;;;;;8.50;2.13;;;17.50;99.90;;;;;;4992497;28;20522;-91
2022/08/28 07:55:58;;;;;;;8.27;2.10;;;17.60;99.90;;;;;;5005577;28;20074;-92
2022/08/28 07:58:28;;;;;;;8.50;2.20;;;17.70;99.90;;;;;;5010225;28;20050;-93
2022/08/28 08:00:54;;;;;;;7.07;2.25;;;17.80;99.90;;;;;;4999436;28;20049;-92
2022/08/28 08:03:20;;;;;;;7.03;2.15;;;17.90;99.90;;;;;;4993719;28;20046;-91
2022/08/28 08:05:54;;;;;;;7.97;2.30;;;17.90;99.90;;;;;;5009402;28;20356;-94
2022/08/28 08:08:20;;;;;;;9.63;2.40;;;17.90;99.90;;;;;;5008452;28;20148;-94
2022/08/28 08:10:59;;;;;;;7.75;2.25;;;17.90;99.90;;;;;;5006408;28;20041;-93
2022/08/28 08:13:25;;;;;;;7.97;1.85;;;18.10;99.90;;;;;;5006484;28;20045;-93
2022/08/28 08:15:51;;;;;;;8.32;2.10;;;18.20;99.90;;;;;;5005449;28;20160;-90
2022/08/28 08:18:17;;;;;;;6.50;1.67;;;18.30;99.90;;;;;;5004651;28;20037;-93
2022/08/28 08:20:43;;;;;;;8.05;1.85;;;18.40;99.90;;;;;;5004191;28;20427;-93
2022/08/28 08:23:08;;;;;;;7.43;2.30;;;18.60;99.90;;;;;;5005546;28;20477;-94
2022/08/28 08:25:34;;;;;;;9.65;2.10;;;18.60;99.90;;;;;;5010181;28;20053;-93
2022/08/28 08:28:02;;;;;;;8.27;2.15;;;18.50;99.90;;;;;;5011252;28;20041;-89
2022/08/28 08:30:28;;;;;;;6.50;1.70;;;18.70;99.90;;;;;;4987245;28;20042;-93
2022/08/28 08:32:53;;;;;;;8.32;2.25;;;18.60;99.90;;;;;;4995384;28;20040;-91
2022/08/28 08:35:19;;;;;;;8.25;2.03;;;18.60;99.90;;;;;;5003195;28;20122;-88
2022/08/28 08:37:45;;;;;;;7.13;1.85;;;18.70;99.90;;;;;;5007592;28;20483;-93
2022/08/28 08:40:17;;;;;;;8.00;1.88;;;18.80;99.90;;;;;;5005201;28;20387;-86
2022/08/28 08:42:46;;;;;;;7.03;2.20;;;18.80;99.90;;;;;;4988192;28;20141;-89
2022/08/28 08:45:16;;;;;;;9.45;2.10;;;18.90;99.90;;;;;;4984616;28;20041;-90
2022/08/28 08:47:46;;;;;;;8.20;2.30;;;19.00;99.90;;;;;;4988310;28;20081;-89
2022/08/28 08:50:31;;;;;;;7.93;2.23;;;19.10;99.90;;;;;;5007249;28;20038;-93
2022/08/28 08:53:05;;;;;;;7.05;1.83;;;19.20;99.90;;;;;;5003485;28;20049;-86
2022/08/28 08:55:34;;;;;;;8.40;2.15;;;19.30;99.90;;;;;;4987034;28;20115;-91
2022/08/28 08:58:06;;;;;;;7.85;2.03;;;19.40;99.90;;;;;;5005609;28;20053;-90
2022/08/28 09:00:41;;;;;;;7.85;1.92;;;19.30;99.90;;;;;;5005781;28;20061;-91
2022/08/28 09:03:22;;;;;;;6.50;1.90;;;19.30;99.90;;;;;;5000262;28;20092;-87
2022/08/28 09:05:53;;;;;;;6.65;2.00;;;19.20;99.90;;;;;;5002204;28;20383;-89
2022/08/28 09:08:39;;;;;;;9.35;1.98;;;19.20;99.90;;;;;;4988432;28;20054;-91
2022/08/28 09:11:39;;;;;;;11.75;2.22;;;19.30;99.90;;;;;;5005621;28;20053;-95
2022/08/28 09:14:04;;;;;;;7.43;2.15;;;19.30;99.90;;;;;;5004698;28;20084;-90
2022/08/28 09:16:35;;;;;;;6.80;1.70;;;19.40;99.90;;;;;;5000492;28;20041;-95
2022/08/28 09:19:19;;;;;;;6.97;1.90;;;19.40;99.90;;;;;;5007739;28;20041;-91
2022/08/28 09:21:46;;;;;;;6.70;1.90;;;19.70;99.90;;;;;;5002299;28;20042;-92
2022/08/28 09:24:27;;;;;;;7.95;2.05;;;19.60;99.90;;;;;;5008797;28;20038;-93
2022/08/28 09:27:00;;;;;;;7.38;1.90;;;19.70;99.90;;;;;;4993753;28;20129;-93
2022/08/28 09:29:41;;;;;;;8.25;2.22;;;19.60;99.90;;;;;;5007741;28;20038;-95
2022/08/28 09:32:19;;;;;;;;;;;19.50;99.90;;;;;;5008346;28;20050;-93
2022/08/28 09:35:10;;;;;;;9.68;2.28;;;19.40;99.90;;;;;;5008145;28;20037;-95
2022/08/28 09:37:39;;;;;;;8.93;1.98;;;19.40;99.90;;;;;;4985389;28;20041;-95
2022/08/28 09:43:25;;;;;;;8.57;2.47;;;19.50;99.90;;;;;;5007582;28;20045;-94
2022/08/28 09:43:25;;;;;;;8.05;1.85;;;19.60;99.90;;;;;;5011995;28;20062;-92
2022/08/28 09:46:01;;;;;;;7.50;2.03;;;19.70;99.90;;;;;;5013950;28;20050;-91
2022/08/28 09:48:38;;;;;;;8.40;2.10;;;19.70;99.90;;;;;;5020731;28;20057;-94
2022/08/28 09:51:12;;;;;;;7.88;2.10;;;19.80;99.90;;;;;;5008537;28;20116;-95
2022/08/28 09:53:55;;;;;;;7.13;1.98;;;19.80;99.90;;;;;;4990385;28;20042;-94
2022/08/28 09:56:32;;;;;;;5.38;1.73;;;19.70;99.90;;;;;;5005994;28;20080;-91
2022/08/28 09:59:13;;;;;;;7.05;2.10;;;19.50;99.90;;;;;;5004935;28;20046;-94
2022/08/28 10:01:59;;;;;;;;;;;19.60;99.90;;;;;;5009794;28;20046;-92
2022/08/28 10:04:36;;;;;;;7.65;1.92;;;19.60;99.90;;;;;;5011559;28;19936;-95
2022/08/28 10:07:36;;;;;;;6.00;2.10;;;19.80;99.90;;;;;;5005291;28;20034;-94
2022/08/28 10:10:34;;;;;;;8.50;2.30;;;19.90;99.90;;;;;;5014612;28;20053;-93
2022/08/28 10:13:09;;;;;;;7.22;1.83;;;19.80;99.90;;;;;;5012620;28;20220;-92
2022/08/28 10:15:53;;;;;;;6.28;1.92;;;19.80;99.90;;;;;;5005867;28;20085;-93
2022/08/28 10:18:19;;;;;;;7.82;2.20;;;19.80;99.90;;;;;;5010629;28;20057;-94
2022/08/28 10:20:52;;;;;;;7.47;2.20;;;19.90;99.90;;;;;;5003224;28;20406;-88
2022/08/28 10:23:36;;;;;;;7.88;2.10;;;19.90;99.90;;;;;;5011292;28;20076;-94
2022/08/28 10:26:23;;;;;;;6.97;2.20;;;19.90;99.90;;;;;;4993649;28;20045;-94
2022/08/28 10:29:06;;;;;;;6.60;1.90;;;19.90;99.90;;;;;;5006275;28;20554;-95
2022/08/28 10:32:04;;;;;;;8.40;2.20;;;19.80;99.90;;;;;;5012150;28;20049;-92
2022/08/28 10:34:37;;;;;;;8.55;2.47;;;19.90;99.90;;;;;;5012433;28;20042;-91
2022/08/28 10:37:21;;;;;;;6.20;2.10;;;20.00;99.90;;;;;;5009293;28;20339;-92
2022/08/28 10:39:49;;;;;;;7.40;2.08;;;20.20;99.90;;;;;;4994470;28;20088;-94
2022/08/28 10:42:24;;;;;;;7.05;2.10;;;20.10;99.90;;;;;;4988659;28;20050;-95
2022/08/28 10:45:03;;;;;;;8.68;2.20;;;19.90;99.90;;;;;;5004224;28;20176;-92
2022/08/28 10:47:32;;;;;;;6.35;2.00;;;19.80;99.90;;;;;;5007874;28;20066;-91
2022/08/28 10:50:05;;;;;;;6.97;2.00;;;19.70;99.90;;;;;;4995428;28;21327;-96
2022/08/28 10:52:42;;;;;;;9.55;2.22;;;19.80;99.90;;;;;;4993905;28;20053;-89
2022/08/28 10:55:18;;;;;;;6.63;1.90;;;19.90;99.90;;;;;;5006820;28;20088;-92
2022/08/28 10:57:47;;;;;;;9.15;2.30;;;20.10;99.90;;;;;;5009403;28;20108;-91
2022/08/28 11:00:15;;;;;;;6.30;2.30;;;20.30;99.90;;;;;;5009104;28;20050;-90
2022/08/28 11:02:45;;;;;;;5.90;1.80;;;20.40;99.90;;;;;;4998319;28;20042;-89
2022/08/28 11:05:11;;;;;;;7.72;2.03;;;20.30;99.90;;;;;;4989503;28;20038;-90
2022/08/28 11:07:41;;;;;;;6.78;1.90;;;20.40;99.90;;;;;;5012376;28;20406;-95
2022/08/28 11:10:21;;;;;;;8.43;2.10;;;20.30;99.90;;;;;;5014048;28;20487;-91
2022/08/28 11:12:50;;;;;;;7.90;2.20;;;20.10;99.90;;;;;;5013235;28;20042;-95
2022/08/28 11:15:27;;;;;;;6.82;2.10;;;20.00;99.90;;;;;;5013207;28;20042;-92
2022/08/28 11:17:55;;;;;;;8.55;2.20;;;20.00;99.90;;;;;;5004431;28;20073;-93
2022/08/28 11:20:29;;;;;;;8.60;2.10;;;20.10;99.90;;;;;;5007191;28;20038;-94
2022/08/28 11:23:09;;;;;;;7.25;2.35;;;20.20;99.90;;;;;;5009647;28;20037;-93
2022/08/28 11:25:53;;;;;;;9.30;2.38;;;20.40;99.90;;;;;;5010925;28;20056;-91
2022/08/28 11:28:34;;;;;;;9.55;2.33;;;20.30;99.90;;;;;;5009911;28;20042;-93
2022/08/28 11:30:59;;;;;;;7.80;1.95;;;20.30;99.90;;;;;;4995106;28;20121;-92
2022/08/28 11:33:51;;;;;;;6.30;1.83;;;20.20;99.90;;;;;;4999127;28;20138;-90
2022/08/28 11:36:24;;;;;;;6.63;1.77;;;20.20;99.90;;;;;;5004394;28;20073;-92
2022/08/28 11:38:56;;;;;;;8.82;2.17;;;20.00;99.90;;;;;;4988596;28;20046;-91
2022/08/28 11:41:31;;;;;;;7.45;2.00;;;19.90;99.90;;;;;;5014750;28;20053;-93
2022/08/28 11:44:12;;;;;;;7.90;2.15;;;19.90;99.90;;;;;;5011694;28;20463;-92
2022/08/28 11:46:42;;;;;;;7.60;2.40;;;20.10;99.90;;;;;;5012925;28;20052;-87
2022/08/28 11:49:24;;;;;;;7.13;2.20;;;20.30;99.90;;;;;;5006632;28;20844;-88
2022/08/28 11:52:21;;;;;;;7.82;2.35;;;20.40;99.90;;;;;;4993183;28;20076;-94
2022/08/28 11:55:10;;;;;;;7.30;2.05;;;20.30;99.90;;;;;;5009426;28;20088;-94
2022/08/28 11:57:54;;;;;;;7.18;2.10;;;20.40;99.90;;;;;;5005904;28;20064;-95
2022/08/28 12:00:37;;;;;;;6.45;2.28;;;20.20;99.90;;;;;;5007530;28;20491;-92
2022/08/28 12:03:10;;;;;;;7.80;2.40;;;20.10;99.90;;;;;;5009417;28;20057;-95
2022/08/28 12:05:48;;;;;;;6.70;2.00;;;19.90;99.90;;;;;;5006129;28;20048;-92
2022/08/28 12:08:36;;;;;;;;;;;19.80;99.90;;;;;;4992319;28;20038;-92
2022/08/28 12:11:01;;;;;;;5.35;1.75;;;19.80;99.90;;;;;;5007297;28;19936;-94
2022/08/28 12:14:03;;;;;;;6.32;2.00;;;19.90;99.90;;;;;;5008068;28;20050;-91
2022/08/28 12:16:28;;;;;;;7.00;1.88;;;20.10;99.90;;;;;;4909771;29;20105;-95
2022/08/28 12:18:58;;;;;;;6.90;2.10;;;20.30;99.90;;;;;;4896509;29;20142;-93
2022/08/28 12:21:26;;;;;;;8.68;2.40;;;20.40;99.60;;;;;;4911860;29;20448;-94
2022/08/28 12:24:04;;;;;;;6.45;1.92;;;20.50;99.50;;;;;;4932300;29;20048;-96
2022/08/28 12:26:43;;;;;;;6.63;2.30;;;20.50;99.40;;;;;;4911286;29;20056;-94
2022/08/28 12:29:29;;;;;;;8.48;2.20;;;20.40;98.10;;;;;;4933923;29;20083;-87
2022/08/28 12:32:39;;;;;;;7.13;2.20;;;20.20;98.30;;;;;;4928141;29;20067;-92
2022/08/28 12:35:08;;;;;;;8.57;2.13;;;20.30;98.60;;;;;;4915886;29;20056;-93
2022/08/28 12:37:38;;;;;;;6.70;2.25;;;20.50;98.70;;;;;;4915914;29;20059;-93
2022/08/28 12:40:26;;;;;;;7.20;2.20;;;20.60;98.30;;;;;;4917762;29;20052;-96
2022/08/28 12:43:07;;;;;;;5.68;1.80;;;20.50;97.90;;;;;;4927803;29;20136;-92
2022/08/28 12:45:39;;;;;;;7.20;2.00;;;20.50;98.00;;;;;;4911554;29;20168;-91
2022/08/28 12:48:25;;;;;;;6.65;2.10;;;20.60;98.10;;;;;;4908913;29;20052;-90
2022/08/28 12:50:57;;;;;;;8.70;2.33;;;20.60;97.60;;;;;;4975500;28;20513;-92
2022/08/28 12:53:23;;;;;;;6.57;1.83;;;20.70;98.40;;;;;;5009805;28;20494;-88
2022/08/28 12:55:48;;;;;;;5.18;1.88;;;20.60;97.50;;;;;;5006806;28;20052;-91
2022/08/28 12:58:31;;;;;;;5.72;1.73;;;20.50;97.20;;;;;;4992336;28;20057;-95
2022/08/28 13:01:01;;;;;;;5.65;2.00;;;20.40;97.60;;;;;;4999340;28;20038;-93
2022/08/28 13:03:28;;;;;;;6.65;2.08;;;20.40;98.10;;;;;;4986995;28;20038;-89